Time;durP1;ratioP1;P1;durP2;ratioP2;P2;SDS_P1;SDS_P2;PMS_P1;PMS_P2;Temp;Humidity;BMP_temperature;BMP_pressure;BME280_temperature;BME280_humidity;BME280_pressure;Samples;Min_cycle;Max_cycle;Signal;HPM_P1;HPM_P2
2022/01/29 00:01:18;;;;;;;;;;;2.80;99.90;;;;;;4992269;28;19921;-82
2022/01/29 00:03:44;;;;;;;;;;;2.80;99.90;;;;;;4988897;28;20435;-83
2022/01/29 00:06:10;;;;;;;;;;;2.80;99.90;;;;;;4992500;28;19917;-83
2022/01/29 00:08:39;;;;;;;;;;;2.80;99.90;;;;;;5001792;28;19909;-83
2022/01/29 00:11:15;;;;;;;;;;;2.80;99.90;;;;;;4993927;28;19921;-82
2022/01/29 00:13:41;;;;;;;;;;;2.80;99.90;;;;;;5004098;28;20192;-83
2022/01/29 00:16:07;;;;;;;;;;;2.80;99.90;;;;;;4996648;28;20473;-83
2022/01/29 00:18:33;;;;;;;;;;;2.80;99.90;;;;;;4992679;28;19910;-83
2022/01/29 00:21:02;;;;;;;;;;;2.80;99.90;;;;;;4993889;28;19910;-83
2022/01/29 00:23:31;;;;;;;;;;;2.80;99.90;;;;;;4976203;28;20303;-83
2022/01/29 00:25:59;;;;;;;;;;;2.80;99.90;;;;;;4975960;28;20273;-83
2022/01/29 00:28:26;;;;;;;;;;;2.80;99.90;;;;;;4992983;28;20399;-83
2022/01/29 00:30:56;;;;;;;;;;;2.80;99.90;;;;;;4976042;28;19914;-82
2022/01/29 00:33:24;;;;;;;;;;;2.80;99.90;;;;;;4993290;28;19913;-82
2022/01/29 00:35:50;;;;;;;;;;;2.80;99.90;;;;;;5023699;28;19953;-83
2022/01/29 00:38:21;;;;;;;;;;;2.80;99.90;;;;;;5008033;28;19941;-83
2022/01/29 00:40:47;;;;;;;;;;;2.80;99.90;;;;;;4988673;28;20283;-83
2022/01/29 00:43:13;;;;;;;;;;;2.80;99.90;;;;;;4991451;28;19913;-83
2022/01/29 00:45:38;;;;;;;;;;;2.80;99.90;;;;;;4975950;28;19925;-82
2022/01/29 00:48:10;;;;;;;;;;;2.80;99.90;;;;;;5010864;28;20444;-83
2022/01/29 00:50:35;;;;;;;;;;;2.80;99.90;;;;;;5009629;28;19936;-83
2022/01/29 00:53:01;;;;;;;;;;;2.80;99.90;;;;;;5022557;28;19917;-83
2022/01/29 00:55:27;;;;;;;;;;;2.80;99.90;;;;;;4975426;28;19910;-83
2022/01/29 00:57:53;;;;;;;;;;;2.80;99.90;;;;;;5016560;28;19921;-83
2022/01/29 01:00:22;;;;;;;;;;;2.80;99.90;;;;;;4992839;28;19914;-83
2022/01/29 01:02:55;;;;;;;;;;;2.80;99.90;;;;;;5024012;28;20289;-83
2022/01/29 01:05:24;;;;;;;;;;;2.80;99.90;;;;;;5007324;28;19909;-83
2022/01/29 01:07:49;;;;;;;;;;;2.80;99.90;;;;;;4994699;28;19920;-83
2022/01/29 01:10:15;;;;;;;;;;;2.80;99.90;;;;;;5004021;28;20402;-82
2022/01/29 01:12:41;;;;;;;;;;;2.80;99.90;;;;;;4975106;28;19913;-83
2022/01/29 01:15:07;;;;;;;;;;;2.80;99.90;;;;;;4991555;28;19914;-83
2022/01/29 01:17:35;;;;;;;;;;;2.70;99.90;;;;;;4989355;28;20087;-83
2022/01/29 01:20:05;;;;;;;;;;;2.70;99.90;;;;;;4992090;28;19980;-83
2022/01/29 01:22:31;;;;;;;;;;;2.70;99.90;;;;;;5023767;28;19950;-83
2022/01/29 01:24:56;;;;;;;;;;;2.70;99.90;;;;;;4998878;28;19916;-83
2022/01/29 01:27:22;;;;;;;;;;;2.70;99.90;;;;;;4991072;28;20329;-82
2022/01/29 01:29:48;;;;;;;;;;;2.70;99.90;;;;;;4990714;28;19916;-83
2022/01/29 01:32:13;;;;;;;;;;;2.70;99.90;;;;;;4990520;28;19917;-83
2022/01/29 01:34:44;;;;;;;;;;;2.70;99.90;;;;;;4974363;28;20279;-83
2022/01/29 01:37:23;;;;;;;;;;;2.70;99.90;;;;;;4990641;28;19910;-83
2022/01/29 01:39:50;;;;;;;;;;;2.70;99.90;;;;;;5021046;28;20020;-83
2022/01/29 01:42:15;;;;;;;;;;;2.70;99.90;;;;;;4980487;28;19960;-83
2022/01/29 01:44:45;;;;;;;;;;;2.70;99.90;;;;;;4979090;28;19950;-83
2022/01/29 01:47:10;;;;;;;;;;;2.70;99.90;;;;;;4994143;28;19971;-83
2022/01/29 01:49:37;;;;;;;;;;;2.70;99.90;;;;;;4979571;28;19917;-83
2022/01/29 01:52:04;;;;;;;;;;;2.70;99.90;;;;;;4991785;28;19913;-83
2022/01/29 01:54:30;;;;;;;;;;;2.60;99.90;;;;;;5006567;28;20591;-83
2022/01/29 01:56:55;;;;;;;;;;;2.60;99.90;;;;;;5007985;28;19921;-83
2022/01/29 01:59:21;;;;;;;;;;;2.60;99.90;;;;;;4981715;28;20160;-83
2022/01/29 02:01:47;;;;;;;;;;;2.60;99.90;;;;;;4989505;28;19914;-82
2022/01/29 02:04:12;;;;;;;;;;;2.60;99.90;;;;;;4973473;28;20279;-82
2022/01/29 02:06:42;;;;;;;;;;;2.60;99.90;;;;;;4973455;28;19913;-83
2022/01/29 02:09:14;;;;;;;;;;;2.60;99.90;;;;;;4973917;28;20236;-82
2022/01/29 02:11:48;;;;;;;;;;;2.60;99.90;;;;;;4993745;28;19910;-83
2022/01/29 02:14:13;;;;;;;;;;;2.60;99.90;;;;;;4990092;28;19996;-83
2022/01/29 02:16:42;;;;;;;;;;;2.60;99.90;;;;;;4989513;28;19914;-83
2022/01/29 02:19:08;;;;;;;;;;;2.60;99.90;;;;;;4990042;28;20141;-83
2022/01/29 02:21:36;;;;;;;;;;;2.60;99.90;;;;;;4991745;28;19910;-83
2022/01/29 02:24:01;;;;;;;;;;;2.60;99.90;;;;;;4993407;28;19910;-83
2022/01/29 02:26:27;;;;;;;;;;;2.60;99.90;;;;;;4990497;28;19921;-83
2022/01/29 02:29:02;;;;;;;;;;;2.60;99.90;;;;;;4991120;28;20367;-83
2022/01/29 02:31:28;;;;;;;;;;;2.60;99.90;;;;;;4989965;28;20000;-83
2022/01/29 02:33:54;;;;;;;;;;;2.60;99.90;;;;;;4970742;28;20009;-83
2022/01/29 02:36:20;;;;;;;;;;;2.60;99.90;;;;;;4986893;28;20020;-83
2022/01/29 02:38:53;;;;;;;;;;;2.60;99.90;;;;;;5021851;28;19921;-83
2022/01/29 02:41:20;;;;;;;;;;;2.60;99.90;;;;;;4989650;28;19910;-83
2022/01/29 02:43:49;;;;;;;;;;;2.60;99.90;;;;;;4998228;28;20286;-83
2022/01/29 02:49:03;;;;;;;;;;;2.50;99.90;;;;;;4990909;28;19913;-83
2022/01/29 02:51:28;;;;;;;;;;;2.60;99.90;;;;;;4990587;28;19910;-83
2022/01/29 02:53:54;;;;;;;;;;;2.50;99.90;;;;;;4973693;28;19933;-83
2022/01/29 02:56:23;;;;;;;;;;;2.50;99.90;;;;;;4989037;28;19965;-83
2022/01/29 02:58:52;;;;;;;;;;;2.60;99.90;;;;;;4998608;28;20313;-84
2022/01/29 03:01:18;;;;;;;;;;;2.50;99.90;;;;;;4991582;28;20374;-84
2022/01/29 03:03:44;;;;;;;;;;;2.60;99.90;;;;;;4996698;28;19916;-83
2022/01/29 03:06:10;;;;;;;;;;;2.60;99.90;;;;;;4992793;28;19909;-83
2022/01/29 03:08:39;;;;;;;;;;;2.60;99.90;;;;;;4971936;28;20018;-83
2022/01/29 03:11:05;;;;;;;;;;;2.50;99.90;;;;;;5005327;28;19921;-83
2022/01/29 03:13:30;;;;;;;;;;;2.60;99.90;;;;;;4989733;28;19914;-83
2022/01/29 03:16:03;;;;;;;;;;;2.50;99.90;;;;;;4977471;28;19913;-83
2022/01/29 03:18:31;;;;;;;;;;;2.50;99.90;;;;;;5014238;28;20356;-83
2022/01/29 03:20:59;;;;;;;;;;;2.50;99.90;;;;;;4996480;28;19913;-83
2022/01/29 03:23:25;;;;;;;;;;;2.50;99.90;;;;;;4976820;28;19914;-83
2022/01/29 03:25:50;;;;;;;;;;;2.50;99.90;;;;;;4993038;28;19916;-83
2022/01/29 03:28:17;;;;;;;;;;;2.50;99.90;;;;;;5008915;28;20429;-83
2022/01/29 03:30:42;;;;;;;;;;;2.50;99.90;;;;;;4992493;28;19913;-84
2022/01/29 03:33:08;;;;;;;;;;;2.50;99.90;;;;;;5005853;28;19959;-84
2022/01/29 03:35:33;;;;;;;;;;;2.50;99.90;;;;;;5009717;28;19910;-83
2022/01/29 03:38:01;;;;;;;;;;;2.50;99.90;;;;;;4995857;28;19979;-83
2022/01/29 03:40:28;;;;;;;;;;;2.50;99.90;;;;;;4977091;28;19913;-84
2022/01/29 03:43:04;;;;;;;;;;;2.40;99.90;;;;;;4976697;28;19914;-83
2022/01/29 03:45:33;;;;;;;;;;;2.40;99.90;;;;;;5022871;28;19922;-83
2022/01/29 03:47:59;;;;;;;;;;;2.40;99.90;;;;;;5025604;28;19964;-83
2022/01/29 03:50:24;;;;;;;;;;;2.40;99.90;;;;;;4992096;28;19957;-83
2022/01/29 03:52:50;;;;;;;;;;;2.40;99.90;;;;;;5004698;28;20203;-83
2022/01/29 03:55:16;;;;;;;;;;;2.40;99.90;;;;;;4985526;28;19918;-83
2022/01/29 03:57:45;;;;;;;;;;;2.40;99.90;;;;;;4985678;28;20366;-83
2022/01/29 04:00:10;;;;;;;;;;;2.40;99.90;;;;;;5012316;28;19972;-83
2022/01/29 04:02:36;;;;;;;;;;;2.40;99.90;;;;;;4998938;28;19948;-83
2022/01/29 04:05:05;;;;;;;;;;;2.40;99.90;;;;;;4993784;28;19910;-83
2022/01/29 04:07:30;;;;;;;;;;;2.40;99.90;;;;;;5025356;28;19920;-83
2022/01/29 04:09:56;;;;;;;;;;;2.40;99.90;;;;;;5008415;28;19913;-84
2022/01/29 04:12:26;;;;;;;;;;;2.40;99.90;;;;;;4992863;28;19909;-83
2022/01/29 04:14:54;;;;;;;;;;;2.40;99.90;;;;;;5027291;28;20378;-84
2022/01/29 04:17:19;;;;;;;;;;;2.40;99.90;;;;;;4996055;28;20025;-83
2022/01/29 04:19:45;;;;;;;;;;;2.40;99.90;;;;;;4993658;28;19928;-83
2022/01/29 04:22:17;;;;;;;;;;;2.50;99.90;;;;;;4989078;28;19921;-83
2022/01/29 04:24:42;;;;;;;;;;;2.40;99.90;;;;;;4989601;28;19910;-83
2022/01/29 04:27:17;;;;;;;;;;;2.50;99.90;;;;;;4991921;28;19916;-84
2022/01/29 04:29:56;;;;;;;;;;;2.50;99.90;;;;;;4994866;28;19957;-84
2022/01/29 04:32:31;;;;;;;;;;;2.50;99.90;;;;;;5011928;28;19914;-83
2022/01/29 04:34:56;;;;;;;;;;;2.50;99.90;;;;;;4999943;28;19926;-83
2022/01/29 04:37:25;;;;;;;;;;;2.50;99.90;;;;;;5024390;28;19918;-83
2022/01/29 04:39:54;;;;;;;;;;;2.50;99.90;;;;;;5009684;28;19910;-83
2022/01/29 04:42:19;;;;;;;;;;;2.50;99.90;;;;;;4977807;28;20028;-83
2022/01/29 04:44:45;;;;;;;;;;;2.50;99.90;;;;;;4988414;28;19973;-83
2022/01/29 04:47:14;;;;;;;;;;;2.50;99.90;;;;;;5001230;28;19914;-83
2022/01/29 04:49:40;;;;;;;;;;;2.50;99.90;;;;;;5009763;28;20341;-83
2022/01/29 04:52:05;;;;;;;;;;;2.50;99.90;;;;;;5011355;28;19941;-83
2022/01/29 04:54:32;;;;;;;;;;;2.50;99.90;;;;;;4996302;28;20385;-83
2022/01/29 04:57:04;;;;;;;;;;;2.50;99.90;;;;;;5023383;28;20397;-83
2022/01/29 04:59:29;;;;;;;;;;;2.50;99.90;;;;;;5005372;28;20294;-83
2022/01/29 05:01:55;;;;;;;;;;;2.50;99.90;;;;;;5010962;28;19920;-83
2022/01/29 05:04:23;;;;;;;;;;;2.50;99.90;;;;;;5010036;28;19917;-83
2022/01/29 05:06:52;;;;;;;;;;;2.50;99.90;;;;;;5003356;28;19972;-83
2022/01/29 05:09:18;;;;;;;;;;;2.50;99.90;;;;;;4983067;28;20401;-83
2022/01/29 05:11:52;;;;;;;;;;;2.50;99.90;;;;;;4992474;28;19914;-84
2022/01/29 05:14:45;;;;;;;;;;;2.50;99.90;;;;;;4986519;28;19914;-83
2022/01/29 05:26:49;;;;;;;;;;;2.50;99.90;;;;;;4990633;28;19991;-83
2022/01/29 05:28:10;;;;;;;;;;;2.50;99.90;;;;;;4978573;28;19917;-83
2022/01/29 05:30:39;;;;;;;;;;;2.40;99.90;;;;;;4991650;28;19906;-83
2022/01/29 05:33:04;;;;;;;;;;;2.50;99.90;;;;;;5006868;28;19913;-83
2022/01/29 05:35:33;;;;;;;;;;;2.40;99.90;;;;;;5000759;28;19968;-84
2022/01/29 05:38:04;;;;;;;;;;;2.40;99.90;;;;;;4993607;28;19909;-83
2022/01/29 05:40:30;;;;;;;;;;;2.40;99.90;;;;;;5007765;28;19975;-83
2022/01/29 05:42:56;;;;;;;;;;;2.40;99.90;;;;;;4974420;28;20371;-83
2022/01/29 05:45:21;;;;;;;;;;;2.40;99.90;;;;;;4974239;28;19967;-84
2022/01/29 05:47:47;;;;;;;;;;;2.40;99.90;;;;;;4990794;28;19910;-83
2022/01/29 05:50:12;;;;;;;;;;;2.40;99.90;;;;;;5010759;28;19917;-83
2022/01/29 05:52:38;;;;;;;;;;;2.40;99.90;;;;;;4984495;28;19960;-83
2022/01/29 05:55:04;;;;;;;;;;;2.40;99.90;;;;;;4989749;28;20454;-83
2022/01/29 05:57:30;;;;;;;;;;;2.40;99.90;;;;;;4983111;28;19909;-84
2022/01/29 05:59:55;;;;;;;;;;;2.40;99.90;;;;;;5010380;28;19906;-84
2022/01/29 06:02:25;;;;;;;;;;;2.40;99.90;;;;;;4992563;28;19924;-83
2022/01/29 06:04:50;;;;;;;;;;;2.30;99.90;;;;;;4992009;28;19940;-84
2022/01/29 06:07:15;;;;;;;;;;;2.30;99.90;;;;;;5022362;28;20000;-83
2022/01/29 06:09:41;;;;;;;;;;;2.30;99.90;;;;;;5006112;28;19914;-83
2022/01/29 06:12:07;;;;;;;;;;;2.30;99.90;;;;;;4989677;28;20023;-84
2022/01/29 06:14:32;;;;;;;;;;;2.30;99.90;;;;;;4991346;28;19918;-83
2022/01/29 06:16:58;;;;;;;;;;;2.30;99.90;;;;;;4973574;28;19916;-83
2022/01/29 06:19:23;;;;;;;;;;;2.30;99.90;;;;;;4990112;28;20033;-83
2022/01/29 06:21:49;;;;;;;;;;;2.30;99.90;;;;;;4997974;28;19921;-83
2022/01/29 06:24:14;;;;;;;;;;;2.30;99.90;;;;;;5001610;28;19917;-83
2022/01/29 06:26:40;;;;;;;;;;;2.30;99.90;;;;;;5022744;28;20439;-83
2022/01/29 06:29:08;;;;;;;;;;;2.20;99.90;;;;;;4990543;28;19932;-83
2022/01/29 06:31:34;;;;;;;;;;;2.20;99.90;;;;;;4989991;28;19916;-83
2022/01/29 06:34:00;;;;;;;;;;;2.20;99.90;;;;;;4989850;28;19918;-84
2022/01/29 06:36:25;;;;;;;;;;;2.20;99.90;;;;;;4973890;28;19910;-84
2022/01/29 06:38:51;;;;;;;;;;;2.20;99.90;;;;;;4973223;28;20290;-84
2022/01/29 06:41:16;;;;;;;;;;;2.20;99.90;;;;;;4973535;28;20299;-83
2022/01/29 06:43:42;;;;;;;;;;;2.20;99.90;;;;;;4989816;28;19920;-83
2022/01/29 06:46:10;;;;;;;;;;;2.10;99.90;;;;;;4990206;28;19913;-84
2022/01/29 06:48:39;;;;;;;;;;;2.10;99.90;;;;;;5022304;28;19918;-83
2022/01/29 06:51:04;;;;;;;;;;;2.10;99.90;;;;;;4993135;28;19913;-84
2022/01/29 06:53:30;;;;;;;;;;;2.10;99.90;;;;;;5025475;28;19917;-84
2022/01/29 06:55:56;;;;;;;;;;;2.10;99.90;;;;;;4993932;28;19960;-84
2022/01/29 06:58:22;;;;;;;;;;;2.10;99.90;;;;;;5003462;28;20382;-84
2022/01/29 07:00:48;;;;;;;;;;;2.10;99.90;;;;;;4999390;28;20008;-84
2022/01/29 07:03:20;;;;;;;;;;;2.10;99.90;;;;;;4981967;28;20379;-83
2022/01/29 07:05:46;;;;;;;;;;;2.10;99.90;;;;;;4999415;28;19964;-84
2022/01/29 07:08:11;;;;;;;;;;;2.20;99.90;;;;;;4999485;28;20075;-83
2022/01/29 07:10:37;;;;;;;;;;;2.20;99.90;;;;;;4977549;28;20008;-85
2022/01/29 07:13:09;;;;;;;;;;;2.20;99.90;;;;;;5005809;28;19936;-85
2022/01/29 07:15:35;;;;;;;;;;;2.10;99.90;;;;;;5025284;28;19921;-85
2022/01/29 07:18:00;;;;;;;;;;;2.10;99.90;;;;;;4996788;28;19925;-85
2022/01/29 07:20:26;;;;;;;;;;;2.20;99.90;;;;;;4978390;28;20382;-85
2022/01/29 07:22:52;;;;;;;;;;;2.20;99.90;;;;;;4998392;28;19996;-86
2022/01/29 07:25:17;;;;;;;;;;;2.10;99.90;;;;;;4999889;28;19914;-85
2022/01/29 07:27:43;;;;;;;;;;;2.10;99.90;;;;;;5008796;28;19924;-84
2022/01/29 07:30:08;;;;;;;;;;;2.10;99.90;;;;;;5011427;28;19921;-85
2022/01/29 07:32:34;;;;;;;;;;;2.10;99.90;;;;;;5010542;28;19918;-85
2022/01/29 07:34:59;;;;;;;;;;;2.20;99.90;;;;;;4993893;28;19959;-84
2022/01/29 07:37:25;;;;;;;;;;;2.20;99.90;;;;;;4991730;28;19910;-84
2022/01/29 07:39:50;;;;;;;;;;;2.20;99.90;;;;;;4996714;28;19913;-83
2022/01/29 07:42:16;;;;;;;;;;;2.20;99.90;;;;;;4980996;28;19920;-83
2022/01/29 07:44:41;;;;;;;;;;;2.20;99.90;;;;;;4979792;28;20027;-83
2022/01/29 07:47:07;;;;;;;;;;;2.20;99.90;;;;;;5020667;28;20341;-83
2022/01/29 07:49:36;;;;;;;;;;;2.20;99.90;;;;;;4976347;28;19987;-83
2022/01/29 07:52:02;;;;;;;;;;;2.20;99.90;;;;;;4992242;28;19916;-83
2022/01/29 07:54:28;;;;;;;;;;;2.30;99.90;;;;;;4976203;28;19913;-83
2022/01/29 07:56:54;;;;;;;;;;;2.30;99.90;;;;;;5007038;28;19921;-83
2022/01/29 07:59:19;;;;;;;;;;;2.30;99.90;;;;;;4981766;28;19917;-84
2022/01/29 08:01:45;;;;;;;;;;;2.40;99.90;;;;;;4979160;28;19922;-84
2022/01/29 08:04:10;;;;;;;;;;;2.40;99.90;;;;;;5008737;28;20402;-84
2022/01/29 08:06:36;;;;;;;;;;;2.40;99.90;;;;;;5001904;28;19956;-84
2022/01/29 08:09:02;;;;;;;;;;;2.50;99.90;;;;;;4979049;28;20318;-84
2022/01/29 08:11:28;;;;;;;;;;;2.50;99.90;;;;;;5001719;28;19959;-83
2022/01/29 08:13:53;;;;;;;;;;;2.50;99.90;;;;;;5026945;28;19922;-84
2022/01/29 08:16:19;;;;;;;;;;;2.60;99.90;;;;;;4999912;28;19917;-84
2022/01/29 08:18:45;;;;;;;;;;;2.60;99.90;;;;;;5024209;28;19964;-83
2022/01/29 08:21:15;;;;;;;;;;;2.60;99.90;;;;;;4993071;28;19918;-85
2022/01/29 08:23:41;;;;;;;;;;;2.60;99.90;;;;;;4996560;28;19964;-84
2022/01/29 08:26:06;;;;;;;;;;;2.70;99.90;;;;;;5002930;28;20343;-84
2022/01/29 08:28:32;;;;;;;;;;;2.70;99.90;;;;;;5008510;28;19921;-83
2022/01/29 08:30:57;;;;;;;;;;;2.80;99.90;;;;;;5005480;28;20305;-83
2022/01/29 08:33:23;;;;;;;;;;;2.80;99.90;;;;;;5007702;28;20374;-84
2022/01/29 08:35:49;;;;;;;;;;;2.80;99.90;;;;;;5020083;28;19925;-83
2022/01/29 08:38:19;;;;;;;;;;;2.80;99.90;;;;;;5002703;28;19909;-83
2022/01/29 08:40:44;;;;;;;;;;;2.80;99.90;;;;;;4999974;28;20311;-84
2022/01/29 08:43:13;;;;;;;;;;;2.90;99.90;;;;;;5009971;28;19913;-83
2022/01/29 08:45:39;;;;;;;;;;;2.90;99.90;;;;;;4976332;28;19925;-83
2022/01/29 08:48:04;;;;;;;;;;;2.80;99.90;;;;;;5010860;28;20313;-83
2022/01/29 08:50:30;;;;;;;;;;;2.80;99.90;;;;;;5009089;28;19963;-83
2022/01/29 08:52:55;;;;;;;;;;;2.80;99.90;;;;;;4974649;28;19920;-83
2022/01/29 08:55:21;;;;;;;;;;;2.80;99.90;;;;;;4975157;28;19918;-84
2022/01/29 08:57:46;;;;;;;;;;;2.80;99.90;;;;;;4990599;28;19965;-83
2022/01/29 09:00:12;;;;;;;;;;;2.80;99.90;;;;;;4974350;28;20701;-83
2022/01/29 09:02:38;;;;;;;;;;;2.70;99.90;;;;;;5006425;28;19967;-83
2022/01/29 09:05:05;;;;;;;;;;;2.70;99.90;;;;;;4976855;28;19925;-83
2022/01/29 09:07:30;;;;;;;;;;;2.70;99.90;;;;;;5001869;28;19910;-84
2022/01/29 09:09:56;;;;;;;;;;;2.80;99.90;;;;;;5011724;28;19909;-83
2022/01/29 09:12:22;;;;;;;;;;;2.80;99.90;;;;;;4997628;28;19914;-83
2022/01/29 09:14:50;;;;;;;;;;;2.80;99.90;;;;;;4994484;28;19980;-83
2022/01/29 09:17:16;;;;;;;;;;;2.80;99.90;;;;;;4992063;28;20370;-84
2022/01/29 09:19:42;;;;;;;;;;;2.80;99.90;;;;;;5006219;28;19918;-84
2022/01/29 09:22:10;;;;;;;;;;;2.90;99.90;;;;;;4992996;28;19915;-83
2022/01/29 09:24:40;;;;;;;;;;;2.90;99.90;;;;;;5022264;28;20393;-83
2022/01/29 09:27:05;;;;;;;;;;;2.90;99.90;;;;;;4990806;28;19917;-84
2022/01/29 09:29:31;;;;;;;;;;;2.90;99.90;;;;;;5024703;28;19914;-84
2022/01/29 09:31:57;;;;;;;;;;;2.90;99.90;;;;;;4995453;28;19917;-84
2022/01/29 09:34:25;;;;;;;;;;;2.90;99.90;;;;;;4991272;28;19921;-84
2022/01/29 09:36:51;;;;;;;;;;;2.90;99.90;;;;;;4991112;28;19913;-84
2022/01/29 09:39:20;;;;;;;;;;;2.90;99.90;;;;;;4972000;28;19914;-83
2022/01/29 09:41:49;;;;;;;;;;;2.90;99.90;;;;;;4990087;28;19933;-83
2022/01/29 09:44:15;;;;;;;;;;;2.90;99.90;;;;;;5022955;28;19910;-83
2022/01/29 09:46:46;;;;;;;;;;;2.90;99.90;;;;;;5002356;28;19924;-83
2022/01/29 09:49:12;;;;;;;;;;;2.90;99.90;;;;;;5000322;28;20282;-83
2022/01/29 09:51:38;;;;;;;;;;;2.90;99.90;;;;;;4981420;28;19922;-83
2022/01/29 09:54:04;;;;;;;;;;;2.90;99.90;;;;;;5002643;28;19917;-83
2022/01/29 09:56:30;;;;;;;;;;;2.90;99.90;;;;;;4976304;28;19968;-84
2022/01/29 09:58:56;;;;;;;;;;;2.80;99.90;;;;;;4993671;28;19999;-83
2022/01/29 10:01:22;;;;;;;;;;;2.80;99.90;;;;;;5003742;28;20044;-83
2022/01/29 10:04:07;;;;;;;;;;;2.90;99.90;;;;;;5002993;28;19914;-83
2022/01/29 10:06:33;;;;;;;;;;;2.90;99.90;;;;;;4998389;28;20404;-83
2022/01/29 10:09:05;;;;;;;;;;;2.90;99.90;;;;;;4997809;28;19909;-83
2022/01/29 10:11:33;;;;;;;;;;;3.00;99.90;;;;;;4991163;28;19918;-84
2022/01/29 10:14:05;;;;;;;;;;;3.00;99.90;;;;;;4994535;28;19917;-83
2022/01/29 10:16:32;;;;;;;;;;;3.10;99.90;;;;;;4998793;28;19914;-83
2022/01/29 10:19:02;;;;;;;;;;;3.00;99.90;;;;;;4993499;28;20348;-83
2022/01/29 10:21:30;;;;;;;;;;;3.10;99.90;;;;;;5008575;28;19924;-83
2022/01/29 10:24:04;;;;;;;;;;;3.10;99.90;;;;;;5003901;28;20309;-83
2022/01/29 10:26:33;;;;;;;;;;;3.10;99.90;;;;;;4996635;28;19917;-84
2022/01/29 10:28:58;;;;;;;;;;;3.10;99.90;;;;;;5022139;28;19910;-84
2022/01/29 10:31:26;;;;;;;;;;;3.10;99.90;;;;;;4987876;28;19917;-83
2022/01/29 10:33:55;;;;;;;;;;;3.10;99.90;;;;;;4996272;28;19914;-83
2022/01/29 10:36:22;;;;;;;;;;;3.10;99.90;;;;;;4992586;28;20020;-82
2022/01/29 10:38:52;;;;;;;;;;;3.10;99.90;;;;;;4982198;28;20356;-83
2022/01/29 10:41:22;;;;;;;;;;;3.10;99.90;;;;;;5004374;28;20012;-83
2022/01/29 10:44:11;;;;;;;;;;;3.20;99.90;;;;;;5022400;28;19909;-83
2022/01/29 10:46:51;;;;;;;;;;;3.20;99.90;;;;;;4991650;28;19921;-87
2022/01/29 10:49:26;;;;;;;;;;;3.20;99.90;;;;;;4991596;28;19910;-83
2022/01/29 10:51:59;;;;;;;;;;;3.20;99.90;;;;;;4991261;28;20393;-83
2022/01/29 10:54:29;;;;;;;;;;;3.20;99.90;;;;;;4989432;28;19914;-82
2022/01/29 10:57:07;;;;;;;;;;;3.20;99.90;;;;;;4991038;28;19921;-83
2022/01/29 10:59:38;;;;;;;;;;;3.20;99.90;;;;;;4991699;28;19916;-83
2022/01/29 11:02:05;;;;;;;;;;;3.30;99.90;;;;;;4991600;28;19952;-83
2022/01/29 11:04:32;;;;;;;;;;;3.30;99.90;;;;;;4989976;28;19910;-82
2022/01/29 11:07:05;;;;;;;;;;;3.30;99.90;;;;;;4990300;28;19916;-84
2022/01/29 11:09:34;;;;;;;;;;;3.30;99.90;;;;;;4991363;28;19960;-83
2022/01/29 11:12:10;;;;;;;;;;;3.30;99.90;;;;;;4990179;28;19914;-83
2022/01/29 11:14:41;;;;;;;;;;;3.30;99.90;;;;;;4990042;28;20405;-83
2022/01/29 11:17:07;;;;;;;;;;;3.30;99.90;;;;;;4990380;28;20012;-83
2022/01/29 11:19:35;;;;;;;;;;;3.30;99.90;;;;;;4973885;28;20111;-83
2022/01/29 11:22:04;;;;;;;;;;;3.30;99.90;;;;;;4989297;28;19906;-84
2022/01/29 11:24:40;;;;;;;;;;;3.40;99.90;;;;;;4990260;28;19909;-83
2022/01/29 11:27:23;;;;;;;;;;;3.40;99.90;;;;;;4990080;28;19937;-83
2022/01/29 11:29:56;;;;;;;;;;;3.40;99.90;;;;;;4973932;28;19910;-83
2022/01/29 11:32:21;;;;;;;;;;;3.40;99.90;;;;;;4973847;28;20470;-84
2022/01/29 11:35:09;;;;;;;;;;;3.40;99.90;;;;;;4993909;28;19949;-84
2022/01/29 11:37:40;;;;;;;;;;;3.40;99.90;;;;;;4995122;28;19914;-83
2022/01/29 11:40:09;;;;;;;;;;;3.50;99.90;;;;;;4993455;28;20586;-83
2022/01/29 11:42:35;;;;;;;;;;;3.50;99.90;;;;;;4962612;28;19914;-83
2022/01/29 11:45:21;;;;;;;;;;;3.50;99.90;;;;;;4989917;28;19924;-83
2022/01/29 11:47:53;;;;;;;;;;;3.50;99.90;;;;;;5009658;28;20366;-82
2022/01/29 11:50:19;;;;;;;;;;;3.50;99.90;;;;;;4990684;28;19914;-83
2022/01/29 11:52:54;;;;;;;;;;;3.50;99.90;;;;;;4994183;28;19916;-83
2022/01/29 11:55:35;;;;;;;;;;;3.50;99.90;;;;;;4994032;28;20001;-82
2022/01/29 11:58:30;;;;;;;;;;;3.50;99.90;;;;;;4992663;28;20367;-83
2022/01/29 12:00:56;;;;;;;;;;;3.50;99.90;;;;;;4998856;28;19987;-83
2022/01/29 12:03:44;;;;;;;;;;;3.50;99.90;;;;;;5013664;28;20000;-83
2022/01/29 12:09:05;;;;;;;;;;;3.50;99.90;;;;;;4973165;28;19993;-83
2022/01/29 12:11:32;;;;;;;;;;;3.50;99.90;;;;;;5024096;28;19910;-83
2022/01/29 12:14:12;;;;;;;;;;;3.50;99.90;;;;;;4994023;28;19956;-83
2022/01/29 12:17:05;;;;;;;;;;;3.50;99.90;;;;;;5024853;28;20004;-83
2022/01/29 12:19:38;;;;;;;;;;;3.50;99.90;;;;;;4992195;28;19909;-83
2022/01/29 12:22:08;;;;;;;;;;;3.50;99.90;;;;;;4993898;28;19913;-83
2022/01/29 12:24:38;;;;;;;;;;;3.50;99.90;;;;;;4994071;28;19993;-83
2022/01/29 12:27:03;;;;;;;;;;;3.50;99.90;;;;;;5008530;28;19914;-83
2022/01/29 12:29:29;;;;;;;;;;;3.50;99.90;;;;;;5025237;28;19921;-83
2022/01/29 12:31:57;;;;;;;;;;;3.60;99.90;;;;;;4992481;28;19905;-83
2022/01/29 12:34:22;;;;;;;;;;;3.60;99.90;;;;;;4992667;28;20349;-83
2022/01/29 12:36:51;;;;;;;;;;;3.60;99.90;;;;;;4993702;28;19929;-83
2022/01/29 12:39:22;;;;;;;;;;;3.60;99.90;;;;;;5010664;28;19967;-83
2022/01/29 12:42:01;;;;;;;;;;;3.60;99.90;;;;;;4998783;28;19915;-83
2022/01/29 12:44:27;;;;;;;;;;;3.70;99.90;;;;;;4995698;28;19909;-83
2022/01/29 12:46:52;;;;;;;;;;;3.60;99.90;;;;;;5011427;28;20271;-83
2022/01/29 12:49:21;;;;;;;;;;;3.60;99.90;;;;;;5009658;28;19960;-83
2022/01/29 12:51:54;;;;;;;;;;;3.60;99.90;;;;;;5011107;28;19995;-83
2022/01/29 12:54:22;;;;;;;;;;;3.60;99.90;;;;;;4994620;28;19913;-83
2022/01/29 12:56:47;;;;;;;;;;;3.70;99.90;;;;;;5011138;28;19909;-83
2022/01/29 12:59:14;;;;;;;;;;;3.70;99.90;;;;;;5006979;28;19921;-83
2022/01/29 13:01:49;;;;;;;;;;;3.80;99.90;;;;;;4991646;28;20506;-83
2022/01/29 13:04:23;;;;;;;;;;;3.80;99.90;;;;;;5021625;28;20369;-83
2022/01/29 13:06:58;;;;;;;;;;;3.90;99.90;;;;;;5006817;28;19921;-83
2022/01/29 13:09:24;;;;;;;;;;;3.90;99.90;;;;;;5005907;28;19920;-83
2022/01/29 13:11:55;;;;;;;;;;;4.00;99.90;;;;;;5010761;28;19994;-83
2022/01/29 13:14:21;;;;;;;;;;;4.10;99.90;;;;;;4996506;28;19910;-83
2022/01/29 13:16:50;;;;;;;;;;;4.10;99.90;;;;;;4990808;28;20202;-83
2022/01/29 13:19:15;;;;;;;;;;;4.10;99.90;;;;;;5000399;28;20346;-83
2022/01/29 13:21:47;;;;;;;;;;;4.10;99.90;;;;;;4990839;28;20275;-83
2022/01/29 13:24:23;;;;;;;;;;;4.00;99.90;;;;;;5023370;28;19914;-83
2022/01/29 13:26:57;;;;;;;;;;;4.00;99.90;;;;;;4992502;28;20008;-83
2022/01/29 13:29:31;;;;;;;;;;;4.00;99.90;;;;;;4991242;28;19955;-83
2022/01/29 13:31:57;;;;;;;;;;;4.00;99.90;;;;;;4992549;28;19971;-83
2022/01/29 13:34:33;;;;;;;;;;;4.00;99.90;;;;;;5007352;28;20391;-83
2022/01/29 13:36:59;;;;;;;;;;;4.00;99.90;;;;;;4992488;28;19905;-83
2022/01/29 13:39:28;;;;;;;;;;;4.10;99.90;;;;;;4991148;28;20347;-83
2022/01/29 13:42:08;;;;;;;;;;;4.10;99.90;;;;;;4975009;28;19959;-83
2022/01/29 13:44:37;;;;;;;;;;;4.10;99.90;;;;;;4996789;28;19997;-83
2022/01/29 13:47:07;;;;;;;;;;;4.10;99.90;;;;;;5011943;28;19913;-83
2022/01/29 13:49:32;;;;;;;;;;;4.20;99.90;;;;;;4991467;28;19910;-83
2022/01/29 13:51:58;;;;;;;;;;;4.20;99.90;;;;;;4974730;28;20359;-83
2022/01/29 13:54:24;;;;;;;;;;;4.20;99.90;;;;;;4990972;28;20000;-83
2022/01/29 13:56:52;;;;;;;;;;;4.20;99.90;;;;;;4974430;28;19913;-83
2022/01/29 13:59:21;;;;;;;;;;;4.30;99.90;;;;;;4991888;28;19910;-83
2022/01/29 14:01:48;;;;;;;;;;;4.20;99.90;;;;;;4990531;28;19910;-83
2022/01/29 14:04:28;;;;;;;;;;;4.20;99.90;;;;;;4990388;28;19964;-83
2022/01/29 14:07:03;;;;;;;;;;;4.20;99.90;;;;;;4990456;28;19910;-83
2022/01/29 14:09:45;;;;;;;;;;;4.20;99.90;;;;;;5003634;28;19917;-84
2022/01/29 14:12:16;;;;;;;;;;;4.20;99.90;;;;;;4972714;28;19933;-83
2022/01/29 14:14:44;;;;;;;;;;;4.20;99.90;;;;;;4971184;28;20379;-83
2022/01/29 14:17:32;;;;;;;;;;;4.20;99.90;;;;;;4972349;28;20287;-84
2022/01/29 14:19:59;;;;;;;;;;;4.20;99.90;;;;;;4972781;28;19909;-83
2022/01/29 14:22:26;;;;;;;;;;;4.20;99.90;;;;;;4972729;28;19997;-83
2022/01/29 14:24:52;;;;;;;;;;;4.20;99.90;;;;;;4987822;28;20331;-83
2022/01/29 14:27:18;;;;;;;;;;;4.20;99.90;;;;;;4987344;28;19924;-83
2022/01/29 14:29:48;;;;;;;;;;;4.20;99.90;;;;;;4990364;28;19959;-84
2022/01/29 14:32:17;;;;;;;;;;;4.20;99.90;;;;;;4990889;28;19910;-83
2022/01/29 14:34:44;;;;;;;;;;;4.20;99.90;;;;;;4992130;28;20345;-84
2022/01/29 14:37:09;;;;;;;;;;;4.20;99.90;;;;;;4990708;28;19914;-83
2022/01/29 14:39:35;;;;;;;;;;;4.20;99.90;;;;;;4991168;28;19912;-83
2022/01/29 14:42:07;;;;;;;;;;;4.10;99.90;;;;;;4974379;28;20017;-83
2022/01/29 14:44:33;;;;;;;;;;;4.10;99.90;;;;;;4991017;28;19993;-83
2022/01/29 14:47:02;;;;;;;;;;;4.10;99.90;;;;;;4991918;28;19912;-84
2022/01/29 14:49:28;;;;;;;;;;;4.10;99.90;;;;;;4990449;28;20359;-83
2022/01/29 14:51:54;;;;;;;;;;;4.10;99.90;;;;;;4990632;28;19912;-82